Time;durP1;ratioP1;P1;durP2;ratioP2;P2;SDS_P1;SDS_P2;PMS_P1;PMS_P2;Temp;Humidity;BMP_temperature;BMP_pressure;BME280_temperature;BME280_humidity;BME280_pressure;Samples;Min_cycle;Max_cycle;Signal;HPM_P1;HPM_P2
2023/01/22 00:01:16;;;;;;;;;51.00;39.25;;;;;2.39;60.56;102562.84;5057086;28;45389;-67
2023/01/22 00:03:42;;;;;;;;;41.50;38.75;;;;;2.47;60.10;102578.66;5056417;28;45348;-67
2023/01/22 00:06:09;;;;;;;;;55.75;41.75;;;;;2.41;60.77;102573.38;5059987;27;45543;-64
2023/01/22 00:08:34;;;;;;;;;56.50;38.50;;;;;2.39;60.93;102575.09;5053830;28;45674;-68
2023/01/22 00:11:00;;;;;;;;;47.00;39.00;;;;;2.27;60.46;102570.63;5059859;28;45724;-68
2023/01/22 00:13:26;;;;;;;;;34.50;31.25;;;;;2.28;60.38;102565.38;5061282;28;45645;-67
2023/01/22 00:15:52;;;;;;;;;41.50;33.75;;;;;2.30;60.65;102574.13;5057722;28;45373;-66
2023/01/22 00:18:18;;;;;;;;;49.00;39.75;;;;;2.22;60.55;102564.44;5052920;28;45508;-67
2023/01/22 00:20:48;;;;;;;;;49.75;38.75;;;;;2.30;60.76;102575.88;5056960;28;45316;-65
2023/01/22 00:23:14;;;;;;;;;35.75;32.50;;;;;2.30;60.72;102554.88;5057783;28;45493;-70
2023/01/22 00:25:39;;;;;;;;;44.75;38.50;;;;;2.21;60.73;102542.53;5053295;28;45317;-67
2023/01/22 00:28:05;;;;;;;;;48.00;44.00;;;;;2.18;60.36;102544.25;5055147;28;45267;-67
2023/01/22 00:30:30;;;;;;;;;43.25;30.75;;;;;2.10;60.43;102536.34;5055814;28;45654;-67
2023/01/22 00:32:56;;;;;;;;;45.25;39.50;;;;;1.89;60.43;102536.09;5057890;28;45285;-67
2023/01/22 00:35:22;;;;;;;;;47.50;33.75;;;;;1.94;60.81;102568.50;5073172;28;47762;-65
2023/01/22 00:37:47;;;;;;;;;37.50;36.50;;;;;1.94;60.70;102558.88;5052813;28;45465;-65
2023/01/22 00:40:14;;;;;;;;;42.75;31.25;;;;;2.03;60.55;102569.50;5055880;28;45345;-68
2023/01/22 00:42:40;;;;;;;;;48.00;35.25;;;;;1.99;60.62;102553.72;5057143;28;45489;-68
2023/01/22 00:45:06;;;;;;;;;37.75;33.00;;;;;2.15;60.72;102558.25;5054520;28;45462;-65
2023/01/22 00:47:31;;;;;;;;;59.50;48.50;;;;;2.14;60.51;102561.75;5056146;28;45837;-66
2023/01/22 00:49:58;;;;;;;;;42.25;37.00;;;;;2.24;60.79;102573.22;5051755;28;45440;-64
2023/01/22 00:52:23;;;;;;;;;46.00;33.25;;;;;2.17;60.25;102551.25;5057775;28;45484;-68
2023/01/22 00:54:49;;;;;;;;;53.75;40.25;;;;;2.10;60.55;102540.72;5056133;28;46691;-70
2023/01/22 00:57:15;;;;;;;;;47.50;30.50;;;;;2.21;60.43;102550.41;5056342;28;45259;-67
2023/01/22 00:59:40;;;;;;;;;51.00;40.75;;;;;2.30;60.39;102555.75;5051703;28;45462;-66
2023/01/22 01:02:06;;;;;;;;;38.50;35.75;;;;;2.25;60.28;102557.47;5055012;28;45584;-67
2023/01/22 01:04:31;;;;;;;;;50.00;38.00;;;;;2.15;60.70;102555.63;5056596;28;45625;-68
2023/01/22 01:06:57;;;;;;;;;46.75;36.50;;;;;2.19;60.29;102562.66;5053425;28;45537;-69
2023/01/22 01:09:22;;;;;;;;;51.00;40.00;;;;;2.18;60.16;102558.28;5055919;28;47371;-64
2023/01/22 01:11:48;;;;;;;;;51.50;40.25;;;;;2.22;60.57;102549.59;5055278;28;45469;-65
2023/01/22 01:14:13;;;;;;;;;47.75;41.25;;;;;2.24;60.52;102546.97;5055738;28;45432;-64
2023/01/22 01:16:40;;;;;;;;;46.00;39.25;;;;;2.25;60.03;102549.59;5055098;28;45717;-65
2023/01/22 01:19:08;;;;;;;;;48.75;41.00;;;;;2.26;60.17;102546.09;5055048;28;45587;-63
2023/01/22 01:21:35;;;;;;;;;36.75;28.00;;;;;2.28;60.26;102551.38;5051643;28;45588;-64
2023/01/22 01:24:00;;;;;;;;;52.50;40.50;;;;;2.29;59.56;102554.00;5051807;28;45677;-64
2023/01/22 01:26:26;;;;;;;;;44.75;35.50;;;;;2.23;60.30;102540.84;5055430;28;45373;-65
2023/01/22 01:28:52;;;;;;;;;53.75;37.25;;;;;2.28;60.15;102546.13;5059588;28;45244;-66
2023/01/22 01:31:19;;;;;;;;;56.00;40.25;;;;;2.33;60.09;102561.03;5056711;28;45252;-65
2023/01/22 01:33:45;;;;;;;;;22.00;14.75;;;;;2.30;60.26;102561.00;5054356;28;46446;-68
2023/01/22 01:36:16;;;;;;;;;43.50;38.50;;;;;2.33;59.98;102561.03;5071142;28;45391;-68
2023/01/22 01:38:42;;;;;;;;;45.75;42.75;;;;;2.32;60.44;102563.66;5055034;28;48754;-69
2023/01/22 01:41:14;;;;;;;;;42.50;33.75;;;;;2.30;60.32;102558.38;5055531;28;45683;-70
2023/01/22 01:43:40;;;;;;;;;52.75;40.25;;;;;2.43;60.02;102569.00;5054731;28;45486;-69
2023/01/22 01:46:23;;;;;;;;;47.50;39.00;;;;;2.45;60.17;102565.53;5056435;28;45498;-68
2023/01/22 01:48:54;;;;;;;;;44.75;39.00;;;;;2.49;59.95;102566.44;5055091;28;45557;-68
2023/01/22 01:51:28;;;;;;;;;51.50;42.00;;;;;2.35;59.65;102533.06;5056741;28;45255;-65
2023/01/22 01:53:56;;;;;;;;;41.50;41.00;;;;;2.46;60.02;102554.16;5053541;28;45769;-67
2023/01/22 01:56:30;;;;;;;;;51.50;39.50;;;;;2.38;59.67;102536.59;5053818;28;45523;-67
2023/01/22 01:59:01;;;;;;;;;43.25;35.50;;;;;2.32;60.21;102534.78;5057210;28;45280;-66
2023/01/22 02:01:26;;;;;;;;;55.75;40.00;;;;;2.49;59.88;102555.94;5056969;28;45361;-68
2023/01/22 02:03:52;;;;;;;;;46.25;38.50;;;;;2.57;59.75;102554.25;5054897;28;46218;-67
2023/01/22 02:06:18;;;;;;;;;46.50;42.50;;;;;2.57;59.75;102549.88;5054514;28;45310;-68
2023/01/22 02:08:46;;;;;;;;;52.00;37.50;;;;;2.60;60.14;102549.91;5054977;28;45335;-68
2023/01/22 02:11:12;;;;;;;;;41.00;33.50;;;;;2.55;59.60;102529.72;5055395;28;45529;-68
2023/01/22 02:13:43;;;;;;;;;47.75;37.25;;;;;2.66;59.67;102547.31;5055811;28;45449;-70
2023/01/22 02:16:10;;;;;;;;;31.25;31.25;;;;;2.55;60.15;102543.72;5053294;28;45494;-68
2023/01/22 02:18:36;;;;;;;;;61.25;42.25;;;;;2.67;60.26;102550.84;5056689;28;45378;-69
2023/01/22 02:21:01;;;;;;;;;49.00;43.75;;;;;2.67;60.12;102571.84;5060053;28;45443;-67
2023/01/22 02:23:30;;;;;;;;;51.25;43.50;;;;;2.63;59.61;102572.69;5059357;28;45377;-69
2023/01/22 02:25:57;;;;;;;;;53.00;39.75;;;;;2.57;59.66;102572.63;5058026;28;45485;-65
2023/01/22 02:28:23;;;;;;;;;49.75;40.50;;;;;2.48;59.41;102543.69;5058732;28;45510;-66
2023/01/22 02:30:48;;;;;;;;;51.25;43.00;;;;;2.52;59.49;102561.22;5057171;28;45278;-68
2023/01/22 02:33:17;;;;;;;;;54.50;40.75;;;;;2.56;59.44;102565.63;5055096;28;45757;-67
2023/01/22 02:35:43;;;;;;;;;48.75;40.25;;;;;2.53;59.77;102555.97;5072500;28;45491;-67
2023/01/22 02:38:08;;;;;;;;;62.75;48.25;;;;;2.43;59.82;102562.00;5056477;28;45422;-67
2023/01/22 02:40:34;;;;;;;;;69.00;48.50;;;;;2.44;59.84;102562.88;5074849;28;45613;-65
2023/01/22 02:43:00;;;;;;;;;51.00;42.75;;;;;2.46;60.03;102556.78;5059513;28;46365;-68
2023/01/22 02:45:25;;;;;;;;;46.00;45.00;;;;;2.49;60.30;102542.81;5057006;28;45691;-68
2023/01/22 02:47:51;;;;;;;;;56.25;46.25;;;;;2.57;59.66;102556.88;5057689;28;45357;-66
2023/01/22 02:50:16;;;;;;;;;56.25;46.50;;;;;2.55;59.53;102555.97;5058166;28;45289;-66
2023/01/22 02:52:42;;;;;;;;;45.50;38.25;;;;;2.46;59.80;102550.66;5058256;28;45366;-69
2023/01/22 02:55:08;;;;;;;;;44.50;30.25;;;;;2.34;60.35;102536.56;5060189;28;45231;-69
2023/01/22 02:57:33;;;;;;;;;58.50;46.50;;;;;2.37;60.09;102567.22;5060638;28;45413;-66
2023/01/22 02:59:59;;;;;;;;;50.75;39.25;;;;;2.35;60.18;102559.34;5058683;28;45653;-67
2023/01/22 03:02:24;;;;;;;;;58.00;44.50;;;;;2.39;60.46;102576.00;5071380;28;45501;-67
2023/01/22 03:04:50;;;;;;;;;59.00;48.25;;;;;2.42;59.65;102569.88;5056089;28;45540;-66
2023/01/22 03:07:17;;;;;;;;;58.50;45.00;;;;;2.39;59.86;102569.84;5059033;28;45378;-65
2023/01/22 03:09:43;;;;;;;;;44.00;35.25;;;;;2.36;60.14;102550.59;5058608;28;45457;-68
2023/01/22 03:12:08;;;;;;;;;57.00;43.50;;;;;2.32;59.22;102538.28;5055847;28;46760;-69
2023/01/22 03:22:49;;;;;;;;;50.50;42.50;;;;;2.42;60.26;102556.75;5052898;28;47322;-65
2023/01/22 03:25:14;;;;;;;;;55.00;41.50;;;;;2.41;60.12;102547.13;5058437;28;49826;-64
2023/01/22 03:28:07;;;;;;;;;52.00;44.25;;;;;2.49;59.90;102551.56;5057850;28;45229;-65
2023/01/22 03:30:25;;;;;;;;;53.00;45.00;;;;;2.53;59.82;102561.22;5055626;28;45533;-63
2023/01/22 03:32:50;;;;;;;;;61.25;48.00;;;;;2.33;59.07;102540.03;5054939;28;46611;-66
2023/01/22 03:35:16;;;;;;;;;64.00;48.50;;;;;2.30;59.81;102549.63;5058124;28;45315;-69
2023/01/22 03:37:41;;;;;;;;;61.00;49.00;;;;;2.15;59.94;102523.25;5056667;28;45421;-71
2023/01/22 03:40:08;;;;;;;;;61.00;46.25;;;;;2.15;60.17;102528.50;5055965;28;45542;-70
2023/01/22 03:42:33;;;;;;;;;63.00;47.00;;;;;2.19;60.50;102546.03;5056713;28;46462;-71
2023/01/22 03:44:58;;;;;;;;;52.25;42.50;;;;;2.21;61.00;102539.91;5055449;28;45521;-66
2023/01/22 03:47:24;;;;;;;;;59.00;47.00;;;;;2.18;60.34;102529.41;5056873;28;55625;-69
2023/01/22 03:49:49;;;;;;;;;60.50;49.00;;;;;2.19;60.26;102552.16;5056907;28;45414;-68
2023/01/22 03:52:14;;;;;;;;;51.00;42.50;;;;;2.21;60.49;102550.41;5056153;28;46166;-65
2023/01/22 03:54:40;;;;;;;;;53.25;45.25;;;;;2.26;60.49;102543.47;5057107;28;45432;-67
2023/01/22 03:57:05;;;;;;;;;53.75;46.25;;;;;2.24;59.52;102545.22;5057471;28;45486;-65
2023/01/22 03:59:31;;;;;;;;;63.75;46.00;;;;;2.42;59.81;102565.50;5038266;28;45334;-64
2023/01/22 04:01:56;;;;;;;;;56.00;42.75;;;;;2.39;59.75;102548.84;5043009;28;46105;-65
2023/01/22 04:04:21;;;;;;;;;38.75;25.00;;;;;2.40;60.17;102564.63;5057698;28;45287;-64
2023/01/22 04:06:47;;;;;;;;;50.75;38.00;;;;;2.35;59.89;102535.69;5058182;28;45395;-67
2023/01/22 04:09:14;;;;;;;;;44.00;33.00;;;;;2.38;60.32;102552.34;5058236;28;45327;-65
2023/01/22 04:11:39;;;;;;;;;57.50;44.50;;;;;2.38;60.32;102547.09;5057825;28;46141;-66
2023/01/22 04:14:05;;;;;;;;;48.00;38.75;;;;;2.40;60.14;102547.97;5055209;28;46604;-67
2023/01/22 04:16:31;;;;;;;;;59.00;35.75;;;;;2.26;60.35;102545.22;5057481;28;45218;-69
2023/01/22 04:18:56;;;;;;;;;48.75;42.00;;;;;2.24;60.56;102532.09;5057813;28;45455;-69
2023/01/22 04:21:21;;;;;;;;;48.00;42.50;;;;;2.22;60.19;102539.09;5054595;28;46743;-70
2023/01/22 04:23:47;;;;;;;;;43.75;33.50;;;;;2.18;60.27;102536.38;5055108;28;45328;-72
2023/01/22 04:26:12;;;;;;;;;48.25;39.75;;;;;2.28;60.39;102541.75;5057619;28;45240;-65
2023/01/22 04:28:37;;;;;;;;;35.00;19.50;;;;;2.20;60.52;102543.41;5056910;28;45562;-67
2023/01/22 04:31:03;;;;;;;;;44.75;33.00;;;;;2.19;59.88;102541.66;5057077;28;46099;-69
2023/01/22 04:33:29;;;;;;;;;46.00;38.00;;;;;2.25;60.11;102540.84;5057299;28;45283;-68
2023/01/22 04:35:54;;;;;;;;;54.00;40.00;;;;;2.23;59.66;102534.72;5052853;28;45512;-66
2023/01/22 04:38:20;;;;;;;;;39.00;38.50;;;;;2.21;60.23;102539.91;5057685;28;45833;-68
2023/01/22 04:40:46;;;;;;;;;42.25;31.00;;;;;2.19;59.67;102544.28;5056962;28;45742;-68
2023/01/22 04:43:11;;;;;;;;;40.50;36.50;;;;;2.16;60.11;102538.13;5056615;28;45521;-65
2023/01/22 04:45:37;;;;;;;;;44.00;39.50;;;;;2.10;60.09;102536.34;5052588;28;45427;-66
2023/01/22 04:48:02;;;;;;;;;39.00;33.00;;;;;2.03;60.36;102524.88;5056992;28;45390;-64
2023/01/22 04:50:31;;;;;;;;;20.50;18.50;;;;;2.03;60.73;102518.75;5056369;28;47908;-68
2023/01/22 04:52:57;;;;;;;;;43.25;37.00;;;;;2.07;59.75;102524.03;5055963;28;45500;-65
2023/01/22 04:55:24;;;;;;;;;46.00;39.00;;;;;1.92;60.07;102507.25;5055306;28;46911;-64
2023/01/22 04:57:49;;;;;;;;;44.75;34.50;;;;;2.07;59.46;102525.78;5056299;28;45641;-68
2023/01/22 05:00:15;;;;;;;;;40.00;31.50;;;;;2.10;60.15;102520.59;5055692;28;46133;-68
2023/01/22 05:02:41;;;;;;;;;28.00;25.00;;;;;2.10;60.32;102512.72;5057193;28;45562;-66
2023/01/22 05:05:07;;;;;;;;;36.75;29.25;;;;;2.07;59.63;102492.53;5056537;28;45480;-67
2023/01/22 05:07:33;;;;;;;;;32.50;30.50;;;;;2.14;60.02;102511.00;5059202;28;45342;-64
2023/01/22 05:09:59;;;;;;;;;47.00;39.50;;;;;2.26;59.84;102519.84;5057832;28;46814;-68
2023/01/22 05:12:25;;;;;;;;;40.25;31.25;;;;;2.21;59.39;102518.91;5056025;28;45621;-65
2023/01/22 05:14:50;;;;;;;;;38.75;31.25;;;;;2.25;59.74;102525.97;5053808;28;45622;-65
2023/01/22 05:17:16;;;;;;;;;42.25;36.25;;;;;2.15;59.31;102503.13;5054855;28;45303;-65
2023/01/22 05:19:41;;;;;;;;;49.00;33.00;;;;;2.05;59.26;102512.66;5055885;28;46392;-65
2023/01/22 05:22:07;;;;;;;;;43.00;34.50;;;;;2.02;60.08;102499.50;5055214;28;45380;-67
2023/01/22 05:24:32;;;;;;;;;30.00;27.25;;;;;2.02;60.22;102503.88;5056959;28;45358;-66
2023/01/22 05:26:58;;;;;;;;;38.75;31.00;;;;;2.05;60.05;102496.91;5056189;28;45169;-65
2023/01/22 05:29:25;;;;;;;;;49.75;33.50;;;;;2.08;60.62;102503.91;5059189;28;45258;-67
2023/01/22 05:31:52;;;;;;;;;42.50;34.25;;;;;1.99;60.46;102498.59;5055019;28;45402;-66
2023/01/22 05:34:17;;;;;;;;;42.25;33.50;;;;;1.96;60.26;102491.59;5065977;28;45490;-66
2023/01/22 05:36:42;;;;;;;;;49.75;37.50;;;;;2.07;60.80;102510.91;5067008;27;45477;-65
2023/01/22 05:39:08;;;;;;;;;31.25;31.25;;;;;2.18;60.45;102507.50;5055944;28;45366;-64
2023/01/22 05:41:34;;;;;;;;;38.00;32.00;;;;;2.12;60.52;102504.84;5075713;28;45251;-68
2023/01/22 05:44:03;;;;;;;;;44.75;36.75;;;;;2.16;61.09;102502.25;5071111;27;45380;-67
2023/01/22 05:46:29;;;;;;;;;53.25;35.25;;;;;2.19;60.92;102507.53;5055964;28;45529;-65
2023/01/22 05:48:56;;;;;;;;;39.25;32.75;;;;;2.22;60.67;102496.19;5073959;28;45463;-65
2023/01/22 05:51:21;;;;;;;;;34.00;32.00;;;;;2.29;60.55;102496.25;5058123;27;45424;-69
2023/01/22 05:53:46;;;;;;;;;5.00;1.50;;;;;2.25;60.27;102499.72;5070779;28;45479;-66
2023/01/22 05:56:12;;;;;;;;;29.50;26.75;;;;;2.25;60.74;102504.97;5055357;28;45708;-67
2023/01/22 05:58:37;;;;;;;;;48.00;36.75;;;;;2.26;60.29;102492.72;5054482;28;45545;-69
2023/01/22 06:01:03;;;;;;;;;45.00;29.75;;;;;2.22;60.52;102497.06;5054595;27;45440;-66
2023/01/22 06:03:28;;;;;;;;;46.50;36.50;;;;;2.24;61.51;102503.22;5055389;28;45436;-68
2023/01/22 06:05:58;;;;;;;;;41.75;39.00;;;;;2.19;61.21;102498.78;5058479;28;48525;-66
2023/01/22 06:08:25;;;;;;;;;38.50;35.00;;;;;2.31;61.08;102505.00;5073584;28;45396;-65
2023/01/22 06:11:04;;;;;;;;;43.00;35.00;;;;;2.22;61.50;102494.44;5074717;28;45503;-65
2023/01/22 06:13:31;;;;;;;;;45.00;29.50;;;;;2.25;61.49;102499.72;5061297;27;45444;-67
2023/01/22 06:15:56;;;;;;;;;39.50;32.00;;;;;2.28;61.13;102509.38;5056713;28;45425;-66
2023/01/22 06:18:23;;;;;;;;;41.50;30.75;;;;;2.22;61.38;102499.69;5053547;28;45495;-65
2023/01/22 06:20:48;;;;;;;;;50.25;41.00;;;;;2.26;61.52;102514.59;5053474;28;45250;-66
2023/01/22 06:23:14;;;;;;;;;30.75;20.25;;;;;2.23;61.43;102501.47;5073826;28;45375;-66
2023/01/22 06:25:39;;;;;;;;;38.50;30.75;;;;;2.15;61.63;102500.50;5076142;27;45217;-64
2023/01/22 06:28:05;;;;;;;;;45.75;38.50;;;;;2.20;62.15;102511.91;5057543;27;45598;-70
2023/01/22 06:30:30;;;;;;;;;50.25;41.50;;;;;2.18;62.47;102508.41;5054364;28;45257;-67
2023/01/22 06:32:55;;;;;;;;;53.00;41.25;;;;;2.19;62.58;102491.78;5052490;28;45682;-68
2023/01/22 06:35:21;;;;;;;;;37.50;32.50;;;;;2.23;62.29;102493.59;5055909;28;45509;-70
2023/01/22 06:37:46;;;;;;;;;40.00;29.50;;;;;2.24;61.65;102503.22;5066220;28;45525;-67
2023/01/22 06:40:12;;;;;;;;;31.25;26.75;;;;;2.28;61.73;102510.25;5053214;28;45437;-69
2023/01/22 06:42:38;;;;;;;;;43.25;38.75;;;;;2.34;61.84;102518.19;5053922;28;45455;-68
2023/01/22 06:45:04;;;;;;;;;46.50;42.00;;;;;2.34;62.16;102507.69;5054454;28;45461;-66
2023/01/22 06:47:29;;;;;;;;;41.00;33.75;;;;;2.33;62.08;102508.53;5052441;28;46678;-66
2023/01/22 06:49:55;;;;;;;;;37.25;33.25;;;;;2.27;62.76;102513.75;5055365;28;45426;-64
2023/01/22 06:52:21;;;;;;;;;30.50;25.00;;;;;2.24;62.14;102513.72;5059678;28;51778;-64
2023/01/22 06:54:46;;;;;;;;;40.00;32.00;;;;;2.31;62.40;102515.50;5058905;27;45315;-64
2023/01/22 06:57:11;;;;;;;;;31.50;21.25;;;;;2.42;61.92;102526.13;5053517;28;46408;-64
2023/01/22 06:59:37;;;;;;;;;49.25;38.25;;;;;2.49;62.48;102529.69;5056542;28;45546;-70
2023/01/22 07:02:02;;;;;;;;;43.00;34.00;;;;;2.33;62.52;102518.16;5048981;28;45314;-65
2023/01/22 07:04:28;;;;;;;;;54.50;43.00;;;;;2.16;63.13;102507.50;5054970;28;45261;-64
2023/01/22 07:06:53;;;;;;;;;48.00;35.25;;;;;2.24;63.58;102521.59;5057458;28;46742;-63
2023/01/22 07:09:19;;;;;;;;;60.50;40.25;;;;;2.26;63.71;102532.09;5058791;28;45304;-64
2023/01/22 07:11:44;;;;;;;;;49.75;35.00;;;;;2.30;63.66;102528.63;5061919;28;45412;-66
2023/01/22 07:14:09;;;;;;;;;43.75;40.75;;;;;2.30;63.47;102529.50;5058872;27;45509;-65
2023/01/22 07:16:35;;;;;;;;;43.50;39.75;;;;;2.36;63.50;102533.94;5056135;28;46234;-65
2023/01/22 07:19:00;;;;;;;;;53.75;34.25;;;;;2.39;63.35;102538.34;5056182;28;45293;-64
2023/01/22 07:21:26;;;;;;;;;29.00;20.00;;;;;2.43;63.55;102540.13;5058255;28;45437;-63
2023/01/22 07:23:52;;;;;;;;;35.00;30.75;;;;;2.32;64.08;102535.66;5057485;28;46089;-68
2023/01/22 07:26:17;;;;;;;;;42.75;29.50;;;;;2.32;63.66;102538.28;5056522;28;46162;-62
2023/01/22 07:28:43;;;;;;;;;39.50;32.50;;;;;2.29;64.01;102537.38;5057133;28;45440;-63
2023/01/22 07:31:12;;;;;;;;;50.75;44.00;;;;;2.28;64.11;102544.38;5055153;28;45440;-63
2023/01/22 07:33:37;;;;;;;;;42.75;37.75;;;;;2.36;64.33;102561.09;5083169;27;45267;-62
2023/01/22 07:36:03;;;;;;;;;33.00;23.50;;;;;2.30;64.40;102557.50;5061707;27;47441;-65
2023/01/22 07:38:29;;;;;;;;;44.50;39.50;;;;;2.26;64.19;102548.72;5056053;28;45311;-65
2023/01/22 07:41:02;;;;;;;;;45.50;34.50;;;;;2.39;63.89;102560.22;5060299;28;45449;-63
2023/01/22 07:43:27;;;;;;;;;35.00;28.75;;;;;2.49;63.73;102554.19;5056764;28;45351;-64
2023/01/22 07:45:53;;;;;;;;;37.00;33.75;;;;;2.51;63.62;102562.09;5071175;28;47694;-64
2023/01/22 07:48:18;;;;;;;;;43.75;28.50;;;;;2.56;63.19;102561.25;5056275;28;45245;-64
2023/01/22 07:50:44;;;;;;;;;37.25;31.00;;;;;2.47;63.52;102566.41;5075888;28;45364;-67
2023/01/22 07:53:10;;;;;;;;;40.75;35.50;;;;;2.49;63.79;102563.81;5091318;27;45251;-65
2023/01/22 07:55:36;;;;;;;;;41.75;32.50;;;;;2.47;63.91;102557.66;5059261;28;46139;-65
2023/01/22 07:58:04;;;;;;;;;29.50;27.50;;;;;2.51;63.49;102559.47;5058927;28;45335;-56
2023/01/22 08:00:32;;;;;;;;;49.00;30.00;;;;;2.49;63.73;102566.44;5057197;28;45465;-64
2023/01/22 08:02:58;;;;;;;;;45.75;34.75;;;;;2.48;63.49;102559.44;5059774;28;45256;-59
2023/01/22 08:05:23;;;;;;;;;40.00;24.25;;;;;2.48;64.06;102569.94;5055871;28;46166;-61
2023/01/22 08:07:49;;;;;;;;;31.25;26.75;;;;;2.44;63.62;102576.00;5058931;28;45468;-63
2023/01/22 08:10:15;;;;;;;;;31.00;25.00;;;;;2.36;63.78;102575.97;5058379;28;45236;-63
2023/01/22 08:12:42;;;;;;;;;42.25;34.00;;;;;2.33;64.15;102568.03;5056963;28;45689;-64
2023/01/22 08:15:12;;;;;;;;;44.00;30.75;;;;;2.42;64.00;102570.75;5058848;28;45565;-68
2023/01/22 08:17:38;;;;;;;;;31.75;27.50;;;;;2.48;64.15;102583.09;5058787;28;45351;-65
2023/01/22 08:20:05;;;;;;;;;51.25;36.25;;;;;2.52;63.99;102592.75;5056789;28;45462;-61
2023/01/22 08:22:30;;;;;;;;;45.75;36.50;;;;;2.55;63.73;102585.75;5056153;28;45710;-64
2023/01/22 08:24:56;;;;;;;;;40.25;30.00;;;;;2.67;62.87;102593.75;5053673;28;47431;-61
2023/01/22 08:27:21;;;;;;;;;39.50;24.50;;;;;2.55;63.08;102575.25;5045543;28;45512;-66
2023/01/22 08:29:48;;;;;;;;;30.75;21.50;;;;;2.42;63.23;102567.25;5055196;28;45462;-63
2023/01/22 08:32:15;;;;;;;;;43.00;37.50;;;;;2.49;63.22;102587.47;5056910;28;45539;-60
2023/01/22 08:34:41;;;;;;;;;25.25;22.75;;;;;2.64;63.79;102598.97;5057220;28;46200;-64
2023/01/22 08:37:06;;;;;;;;;41.25;31.75;;;;;2.71;62.96;102589.38;5054543;28;45496;-66
2023/01/22 08:39:32;;;;;;;;;48.50;31.00;;;;;2.66;62.79;102596.38;5056454;28;45457;-59
2023/01/22 08:41:57;;;;;;;;;25.50;21.75;;;;;2.62;62.90;102595.47;5053560;28;45569;-62
2023/01/22 08:44:24;;;;;;;;;36.00;24.50;;;;;2.61;62.89;102577.94;5057351;28;45287;-63
2023/01/22 08:46:50;;;;;;;;;41.50;29.00;;;;;2.76;62.69;102592.94;5057046;28;45254;-61
2023/01/22 08:49:17;;;;;;;;;46.25;34.25;;;;;2.67;63.01;102592.88;5056734;28;45402;-61
2023/01/22 08:51:43;;;;;;;;;47.00;39.25;;;;;2.66;63.04;102583.22;5056800;28;45488;-65
2023/01/22 08:54:08;;;;;;;;;33.50;31.75;;;;;2.89;62.50;102600.06;5059259;28;46288;-64
2023/01/22 08:56:34;;;;;;;;;46.00;33.50;;;;;2.89;62.44;102602.69;5056600;28;46026;-63
2023/01/22 08:59:05;;;;;;;;;33.25;28.25;;;;;2.94;62.29;102590.44;5055483;28;45488;-63
2023/01/22 09:01:31;;;;;;;;;44.50;32.25;;;;;3.01;61.80;102609.78;5059148;28;45501;-57
2023/01/22 09:03:57;;;;;;;;;35.75;27.50;;;;;2.97;61.94;102614.13;5066407;27;45761;-57
2023/01/22 09:06:26;;;;;;;;;32.50;30.25;;;;;3.06;62.19;102607.19;5055609;28;45460;-66
2023/01/22 09:08:52;;;;;;;;;41.25;32.25;;;;;3.22;61.28;102614.28;5056268;28;45357;-61
2023/01/22 09:11:17;;;;;;;;;39.00;33.50;;;;;3.11;61.22;102595.81;5056991;28;45406;-59
2023/01/22 09:13:43;;;;;;;;;37.75;31.25;;;;;3.11;60.87;102602.81;5056223;28;45486;-60
2023/01/22 09:16:12;;;;;;;;;34.00;31.25;;;;;3.11;60.85;102605.44;5057024;28;45330;-63
2023/01/22 09:18:38;;;;;;;;;34.00;28.00;;;;;3.06;61.49;102599.28;5056621;28;45342;-60
2023/01/22 09:21:04;;;;;;;;;29.00;22.75;;;;;3.01;61.40;102598.41;5054961;28;45532;-66
2023/01/22 09:23:30;;;;;;;;;41.25;31.75;;;;;2.79;61.85;102592.97;5066534;28;45664;-61
2023/01/22 09:25:55;;;;;;;;;35.50;34.00;;;;;2.89;61.79;102601.81;5059881;28;45310;-62
2023/01/22 09:28:21;;;;;;;;;38.25;32.75;;;;;2.83;61.90;102600.00;5056646;28;45330;-61
2023/01/22 09:30:46;;;;;;;;;33.75;27.50;;;;;2.79;61.71;102603.47;5057219;28;45790;-57
2023/01/22 09:33:11;;;;;;;;;37.50;33.75;;;;;2.92;61.80;102596.56;5056623;28;45432;-61
2023/01/22 09:35:37;;;;;;;;;32.25;28.00;;;;;3.09;61.24;102604.56;5054608;28;45346;-56
2023/01/22 09:38:04;;;;;;;;;37.50;29.25;;;;;3.05;61.16;102597.53;5046384;28;45485;-57
2023/01/22 09:40:42;;;;;;;;;32.50;30.25;;;;;3.16;61.40;102609.88;5037567;28;45532;-60
2023/01/22 09:43:31;;;;;;;;;43.25;29.25;;;;;3.23;60.86;102616.94;5056383;28;48103;-60
2023/01/22 09:46:04;;;;;;;;;56.25;32.50;;;;;3.32;61.02;102615.25;5055098;28;45354;-59
2023/01/22 09:48:39;;;;;;;;;31.25;27.25;;;;;3.43;60.97;102614.44;5056460;28;45280;-64
2023/01/22 09:51:12;;;;;;;;;32.75;24.75;;;;;3.27;60.30;102602.06;5065885;28;45541;-58
2023/01/22 09:53:37;;;;;;;;;31.25;25.50;;;;;3.23;60.53;102622.19;5068654;27;46305;-62
2023/01/22 09:56:05;;;;;;;;;40.00;32.50;;;;;3.35;60.82;102626.66;5058443;28;45291;-61
2023/01/22 09:58:34;;;;;;;;;26.75;22.50;;;;;3.50;60.48;102637.25;5063830;28;45528;-59
2023/01/22 10:01:03;;;;;;;;;41.50;29.75;;;;;3.44;60.75;102642.50;5068217;28;45516;-59
2023/01/22 10:03:36;;;;;;;;;30.25;23.50;;;;;3.46;60.53;102631.97;5054795;28;47362;-62
2023/01/22 10:06:20;;;;;;;;;31.00;26.00;;;;;3.43;60.59;102629.34;5053944;28;45394;-63
2023/01/22 10:09:06;;;;;;;;;37.75;33.25;;;;;3.26;60.80;102621.34;5055585;28;45428;-63
2023/01/22 10:11:32;;;;;;;;;35.00;26.00;;;;;3.30;61.85;102628.38;5051509;28;45460;-59
2023/01/22 10:14:00;;;;;;;;;30.25;27.75;;;;;3.49;60.86;102646.03;5055144;28;45712;-60
2023/01/22 10:16:26;;;;;;;;;32.75;28.50;;;;;3.59;60.99;102640.81;5055818;28;45449;-64
2023/01/22 10:19:21;;;;;;;;;36.50;31.00;;;;;3.39;60.66;102638.97;5053199;28;45506;-60
2023/01/22 10:21:51;;;;;;;;;33.50;27.50;;;;;3.54;60.97;102632.91;5054342;28;45489;-62
2023/01/22 10:24:16;;;;;;;;;19.75;15.25;;;;;3.60;60.20;102622.41;5054344;28;46206;-58
2023/01/22 10:26:44;;;;;;;;;32.25;27.50;;;;;3.61;60.79;102634.69;5055056;28;45499;-61
2023/01/22 10:29:33;;;;;;;;;35.25;26.25;;;;;3.61;60.77;102623.28;5053661;28;45434;-57
2023/01/22 10:32:01;;;;;;;;;42.25;30.75;;;;;3.66;60.54;102624.22;5047731;28;45545;-60
2023/01/22 10:34:31;;;;;;;;;32.50;24.75;;;;;3.75;60.51;102621.59;5055032;28;45476;-59
2023/01/22 10:37:02;;;;;;;;;23.75;23.75;;;;;3.70;59.87;102610.19;5054882;28;45577;-63
2023/01/22 10:39:44;;;;;;;;;28.25;25.25;;;;;3.71;60.02;102627.72;5056093;28;45323;-60
2023/01/22 10:42:22;;;;;;;;;32.25;26.50;;;;;3.64;60.65;102618.03;5059129;28;45576;-58
2023/01/22 10:45:07;;;;;;;;;51.75;45.50;;;;;3.67;59.68;102618.06;5056109;28;45457;-58
2023/01/22 10:47:33;;;;;;;;;30.25;29.00;;;;;3.39;60.28;102607.41;5051623;28;45502;-62
2023/01/22 10:50:13;;;;;;;;;25.75;22.50;;;;;3.42;60.96;102612.69;5037806;28;45459;-59
2023/01/22 10:52:43;;;;;;;;;25.75;25.00;;;;;3.54;60.10;102618.00;5047100;28;45340;-58
2023/01/22 10:55:20;;;;;;;;;30.50;24.00;;;;;3.52;60.43;102609.25;5058875;28;45462;-62
2023/01/22 10:57:53;;;;;;;;;34.00;27.50;;;;;3.61;60.53;102615.41;5058943;28;45490;-58
2023/01/22 11:00:26;;;;;;;;;27.75;25.50;;;;;3.63;60.70;102621.53;5074838;28;45354;-67
2023/01/22 11:02:51;;;;;;;;;36.75;25.25;;;;;3.76;60.79;102610.19;5049037;28;45406;-64
2023/01/22 11:05:22;;;;;;;;;33.00;27.75;;;;;3.87;59.88;102619.03;5038481;28;45658;-57
2023/01/22 11:08:02;;;;;;;;;30.00;24.25;;;;;3.87;59.68;102616.41;5038936;28;45308;-61
2023/01/22 11:10:39;;;;;;;;;32.00;24.00;;;;;3.73;59.95;102610.19;5048869;28;45377;-61
2023/01/22 11:13:16;;;;;;;;;37.00;30.25;;;;;3.57;59.93;102621.53;5058497;28;45480;-59
2023/01/22 11:15:55;;;;;;;;;25.75;23.25;;;;;3.71;59.34;102604.06;5074403;28;47201;-60
2023/01/22 11:18:36;;;;;;;;;37.00;27.00;;;;;3.73;59.79;102605.81;5058589;28;45322;-57
2023/01/22 11:21:12;;;;;;;;;25.00;22.50;;;;;3.78;60.04;102585.69;5058279;28;45469;-67
2023/01/22 11:23:52;;;;;;;;;23.50;20.00;;;;;3.81;59.53;102587.44;5058834;28;45229;-60
2023/01/22 11:26:24;;;;;;;;;23.00;21.25;;;;;3.74;59.93;102593.53;5074338;28;46399;-62